sensor_id;sensor_type;location;lat;lon;timestamp;pressure;altitude;pressure_sealevel;temperature;humidity
61010;BME280;46897;55.340;86.082;2023-04-06T00:01:57;100495.69;;;-4.92;64.75
61010;BME280;46897;55.340;86.082;2023-04-06T00:04:27;100606.38;;;-3.94;65.13
61010;BME280;46897;55.340;86.082;2023-04-06T00:06:56;100555.50;;;-4.36;65.13
61010;BME280;46897;55.340;86.082;2023-04-06T00:09:42;100533.84;;;-4.41;64.54
61010;BME280;46897;55.340;86.082;2023-04-06T00:12:12;100586.75;;;-3.83;64.55
61010;BME280;46897;55.340;86.082;2023-04-06T00:14:41;100600.59;;;-3.81;64.40
61010;BME280;46897;55.340;86.082;2023-04-06T00:17:12;100634.94;;;-3.47;64.48
61010;BME280;46897;55.340;86.082;2023-04-06T00:19:59;100604.47;;;-3.60;64.46
61010;BME280;46897;55.340;86.082;2023-04-06T00:25:16;100549.91;;;-3.72;64.51
61010;BME280;46897;55.340;86.082;2023-04-06T00:28:02;100638.94;;;-3.19;65.00
61010;BME280;46897;55.340;86.082;2023-04-06T00:30:31;100582.16;;;-3.53;64.50
61010;BME280;46897;55.340;86.082;2023-04-06T00:33:21;100628.97;;;-2.95;65.34
61010;BME280;46897;55.340;86.082;2023-04-06T00:35:50;100579.38;;;-3.17;65.19
61010;BME280;46897;55.340;86.082;2023-04-06T00:38:21;100510.69;;;-3.47;64.83
61010;BME280;46897;55.340;86.082;2023-04-06T00:40:51;100585.66;;;-3.04;64.72
61010;BME280;46897;55.340;86.082;2023-04-06T00:43:21;100598.94;;;-2.86;64.48
61010;BME280;46897;55.340;86.082;2023-04-06T00:45:53;100541.50;;;-3.12;64.63
61010;BME280;46897;55.340;86.082;2023-04-06T00:48:24;100364.78;;;-4.07;64.57
61010;BME280;46897;55.340;86.082;2023-04-06T00:51:17;100629.03;;;-2.39;64.21
61010;BME280;46897;55.340;86.082;2023-04-06T00:53:46;100574.28;;;-2.61;64.24
61010;BME280;46897;55.340;86.082;2023-04-06T00:56:16;100510.78;;;-2.89;64.00
61010;BME280;46897;55.340;86.082;2023-04-06T00:59:02;100623.34;;;-2.13;64.35
61010;BME280;46897;55.340;86.082;2023-04-06T01:01:32;100444.69;;;-3.20;64.12
61010;BME280;46897;55.340;86.082;2023-04-06T01:04:03;100485.22;;;-2.66;64.46
61010;BME280;46897;55.340;86.082;2023-04-06T01:06:51;100611.63;;;-1.85;64.48
61010;BME280;46897;55.340;86.082;2023-04-06T01:12:09;100481.88;;;-2.55;63.96
61010;BME280;46897;55.340;86.082;2023-04-06T01:14:56;100599.03;;;-1.53;64.33
61010;BME280;46897;55.340;86.082;2023-04-06T01:17:26;100569.53;;;-1.60;64.00
61010;BME280;46897;55.340;86.082;2023-04-06T01:19:57;100518.13;;;-1.91;63.72
61010;BME280;46897;55.340;86.082;2023-04-06T01:22:28;100567.16;;;-1.38;64.03
61010;BME280;46897;55.340;86.082;2023-04-06T01:24:58;100603.81;;;-1.10;64.09
61010;BME280;46897;55.340;86.082;2023-04-06T01:30:32;100443.03;;;-1.76;63.81
61010;BME280;46897;55.340;86.082;2023-04-06T01:33:02;100497.09;;;-1.33;63.35
61010;BME280;46897;55.340;86.082;2023-04-06T01:35:31;100540.91;;;-0.72;63.55
61010;BME280;46897;55.340;86.082;2023-04-06T01:38:02;100447.94;;;-1.12;63.55
61010;BME280;46897;55.340;86.082;2023-04-06T01:40:48;100468.88;;;-0.87;63.37
61010;BME280;46897;55.340;86.082;2023-04-06T01:43:18;100394.09;;;-1.33;63.19
61010;BME280;46897;55.340;86.082;2023-04-06T01:45:47;100521.19;;;-0.33;63.19
61010;BME280;46897;55.340;86.082;2023-04-06T01:51:40;100565.66;;;0.08;63.02
61010;BME280;46897;55.340;86.082;2023-04-06T01:54:11;100397.81;;;-0.89;62.79
61010;BME280;46897;55.340;86.082;2023-04-06T01:59:27;100463.88;;;-0.55;62.47
61010;BME280;46897;55.340;86.082;2023-04-06T02:01:56;100516.16;;;-0.06;62.68
61010;BME280;46897;55.340;86.082;2023-04-06T02:04:26;100484.00;;;-0.15;62.68
61010;BME280;46897;55.340;86.082;2023-04-06T02:10:00;100458.84;;;-0.10;62.51
61010;BME280;46897;55.340;86.082;2023-04-06T02:12:29;100539.75;;;0.54;62.51
61010;BME280;46897;55.340;86.082;2023-04-06T02:14:59;100425.84;;;-0.25;62.48
61010;BME280;46897;55.340;86.082;2023-04-06T02:17:46;100536.31;;;0.72;62.33
61010;BME280;46897;55.340;86.082;2023-04-06T02:20:15;100541.53;;;0.82;62.12
61010;BME280;46897;55.340;86.082;2023-04-06T02:22:46;100536.34;;;0.89;62.26
61010;BME280;46897;55.340;86.082;2023-04-06T02:25:52;100538.94;;;0.97;62.26
61010;BME280;46897;55.340;86.082;2023-04-06T02:28:24;100508.53;;;0.90;61.69
61010;BME280;46897;55.340;86.082;2023-04-06T02:30:57;100383.44;;;0.10;61.98
61010;BME280;46897;55.340;86.082;2023-04-06T02:33:46;100483.31;;;0.90;61.90
61010;BME280;46897;55.340;86.082;2023-04-06T02:36:15;100524.16;;;1.27;61.83
61010;BME280;46897;55.340;86.082;2023-04-06T02:39:03;100523.28;;;1.34;61.82
61010;BME280;46897;55.340;86.082;2023-04-06T02:41:34;100535.44;;;1.40;61.82
61010;BME280;46897;55.340;86.082;2023-04-06T02:44:04;100524.13;;;1.53;61.72
61010;BME280;46897;55.340;86.082;2023-04-06T02:46:34;100406.00;;;0.98;61.73
61010;BME280;46897;55.340;86.082;2023-04-06T02:49:03;100453.72;;;1.37;61.68
61010;BME280;46897;55.340;86.082;2023-04-06T02:51:49;100422.44;;;1.31;61.41
61010;BME280;46897;55.340;86.082;2023-04-06T02:54:19;100479.69;;;1.73;61.21
61010;BME280;46897;55.340;86.082;2023-04-06T02:57:07;100514.31;;;2.18;61.13
61010;BME280;46897;55.340;86.082;2023-04-06T02:59:55;100513.34;;;2.33;60.87
61010;BME280;46897;55.340;86.082;2023-04-06T03:02:42;100500.22;;;2.45;60.83
61010;BME280;46897;55.340;86.082;2023-04-06T03:05:30;100495.78;;;2.58;60.52
61010;BME280;46897;55.340;86.082;2023-04-06T03:08:17;100493.94;;;2.74;60.21
61010;BME280;46897;55.340;86.082;2023-04-06T03:10:46;100491.19;;;2.91;60.43
61010;BME280;46897;55.340;86.082;2023-04-06T03:13:17;100477.13;;;3.07;60.25
61010;BME280;46897;55.340;86.082;2023-04-06T03:18:51;100470.59;;;3.47;59.36
61010;BME280;46897;55.340;86.082;2023-04-06T03:24:44;100478.09;;;3.78;58.88
61010;BME280;46897;55.340;86.082;2023-04-06T03:27:13;100470.16;;;3.87;58.82
61010;BME280;46897;55.340;86.082;2023-04-06T03:29:43;100472.69;;;3.91;58.32
61010;BME280;46897;55.340;86.082;2023-04-06T03:32:13;100463.88;;;4.00;58.44
61010;BME280;46897;55.340;86.082;2023-04-06T03:35:00;100468.94;;;4.11;58.01
61010;BME280;46897;55.340;86.082;2023-04-06T03:40:34;100440.94;;;4.18;57.88
61010;BME280;46897;55.340;86.082;2023-04-06T03:43:04;100430.31;;;4.27;57.62
61010;BME280;46897;55.340;86.082;2023-04-06T03:45:35;100399.00;;;4.19;57.59
61010;BME280;46897;55.340;86.082;2023-04-06T03:50:52;100405.50;;;4.48;57.40
61010;BME280;46897;55.340;86.082;2023-04-06T03:53:40;100439.91;;;4.82;57.28
61010;BME280;46897;55.340;86.082;2023-04-06T04:02:39;100431.41;;;5.19;57.03
61010;BME280;46897;55.340;86.082;2023-04-06T04:05:08;100392.22;;;5.10;56.98
61010;BME280;46897;55.340;86.082;2023-04-06T04:07:56;100424.84;;;5.43;56.72
61010;BME280;46897;55.340;86.082;2023-04-06T04:10:25;100409.09;;;5.42;56.91
61010;BME280;46897;55.340;86.082;2023-04-06T04:12:54;100421.88;;;5.60;56.45
61010;BME280;46897;55.340;86.082;2023-04-06T04:15:24;100407.84;;;5.61;56.82
61010;BME280;46897;55.340;86.082;2023-04-06T04:17:54;100388.63;;;5.59;55.93
61010;BME280;46897;55.340;86.082;2023-04-06T04:23:14;100381.38;;;5.70;55.98
61010;BME280;46897;55.340;86.082;2023-04-06T04:28:49;100374.78;;;5.93;56.10
61010;BME280;46897;55.340;86.082;2023-04-06T04:31:18;100400.69;;;6.10;55.90
61010;BME280;46897;55.340;86.082;2023-04-06T04:33:51;100389.16;;;6.16;55.72
61010;BME280;46897;55.340;86.082;2023-04-06T04:36:38;100393.41;;;6.23;56.01
61010;BME280;46897;55.340;86.082;2023-04-06T04:39:24;100386.22;;;6.29;55.93
61010;BME280;46897;55.340;86.082;2023-04-06T04:42:10;100393.91;;;6.37;55.72
61010;BME280;46897;55.340;86.082;2023-04-06T04:47:26;100389.41;;;6.44;55.68
61010;BME280;46897;55.340;86.082;2023-04-06T04:49:57;100384.91;;;6.49;55.08
61010;BME280;46897;55.340;86.082;2023-04-06T04:52:26;100381.22;;;6.55;55.61
61010;BME280;46897;55.340;86.082;2023-04-06T04:55:13;100348.19;;;6.44;55.03
61010;BME280;46897;55.340;86.082;2023-04-06T04:57:42;100363.72;;;6.54;55.37
61010;BME280;46897;55.340;86.082;2023-04-06T05:00:29;100360.91;;;6.61;54.96
61010;BME280;46897;55.340;86.082;2023-04-06T05:14:48;100310.63;;;6.72;54.87
61010;BME280;46897;55.340;86.082;2023-04-06T05:17:17;100350.38;;;6.96;54.84
61010;BME280;46897;55.340;86.082;2023-04-06T05:20:05;100343.34;;;6.96;54.41
61010;BME280;46897;55.340;86.082;2023-04-06T05:22:34;100330.31;;;6.92;54.54
61010;BME280;46897;55.340;86.082;2023-04-06T05:28:16;100316.63;;;7.10;54.43
61010;BME280;46897;55.340;86.082;2023-04-06T05:33:53;100321.09;;;7.38;54.46
61010;BME280;46897;55.340;86.082;2023-04-06T05:36:22;100321.75;;;7.46;54.41
61010;BME280;46897;55.340;86.082;2023-04-06T05:38:51;100306.63;;;7.53;54.38
61010;BME280;46897;55.340;86.082;2023-04-06T05:41:24;100304.63;;;7.61;54.60
61010;BME280;46897;55.340;86.082;2023-04-06T05:46:41;100301.47;;;7.78;54.19
61010;BME280;46897;55.340;86.082;2023-04-06T05:49:10;100295.19;;;7.82;54.43
61010;BME280;46897;55.340;86.082;2023-04-06T05:51:39;100243.28;;;7.57;54.32
61010;BME280;46897;55.340;86.082;2023-04-06T05:54:10;100288.75;;;7.92;54.30
61010;BME280;46897;55.340;86.082;2023-04-06T05:56:41;100286.78;;;7.97;53.81
61010;BME280;46897;55.340;86.082;2023-04-06T05:59:45;100275.25;;;8.01;53.81
61010;BME280;46897;55.340;86.082;2023-04-06T06:02:32;100277.81;;;8.03;53.59
61010;BME280;46897;55.340;86.082;2023-04-06T06:05:01;100284.63;;;8.10;53.80
61010;BME280;46897;55.340;86.082;2023-04-06T06:07:48;100278.31;;;8.16;53.72
61010;BME280;46897;55.340;86.082;2023-04-06T06:21:45;100256.25;;;8.45;52.73
61010;BME280;46897;55.340;86.082;2023-04-06T06:24:31;100211.19;;;8.24;52.61
61010;BME280;46897;55.340;86.082;2023-04-06T06:30:25;100253.94;;;8.61;51.78
61010;BME280;46897;55.340;86.082;2023-04-06T06:32:54;100186.25;;;8.10;52.03
61010;BME280;46897;55.340;86.082;2023-04-06T06:35:29;100147.06;;;7.99;51.85
61010;BME280;46897;55.340;86.082;2023-04-06T06:37:59;100249.03;;;8.75;51.91
61010;BME280;46897;55.340;86.082;2023-04-06T06:41:06;100245.47;;;8.76;51.57
61010;BME280;46897;55.340;86.082;2023-04-06T06:43:35;100232.28;;;8.76;51.50
61010;BME280;46897;55.340;86.082;2023-04-06T06:46:06;100237.44;;;8.79;51.34
61010;BME280;46897;55.340;86.082;2023-04-06T06:54:27;100196.47;;;8.69;51.07
61010;BME280;46897;55.340;86.082;2023-04-06T06:56:56;100222.13;;;8.89;50.90
61010;BME280;46897;55.340;86.082;2023-04-06T06:59:25;100213.28;;;8.90;50.91
61010;BME280;46897;55.340;86.082;2023-04-06T07:01:56;100200.88;;;8.92;50.97
61010;BME280;46897;55.340;86.082;2023-04-06T07:07:33;100195.22;;;9.03;51.06
61010;BME280;46897;55.340;86.082;2023-04-06T07:10:20;100175.25;;;8.96;50.95
61010;BME280;46897;55.340;86.082;2023-04-06T07:13:25;100187.91;;;9.10;50.80
61010;BME280;46897;55.340;86.082;2023-04-06T07:16:29;100182.56;;;9.11;50.60
61010;BME280;46897;55.340;86.082;2023-04-06T07:19:17;100176.16;;;9.18;50.85
61010;BME280;46897;55.340;86.082;2023-04-06T07:24:33;100171.06;;;9.36;50.77
61010;BME280;46897;55.340;86.082;2023-04-06T07:27:02;100159.50;;;9.38;50.75
61010;BME280;46897;55.340;86.082;2023-04-06T07:29:32;100155.66;;;9.47;50.69
61010;BME280;46897;55.340;86.082;2023-04-06T07:32:01;100145.94;;;9.48;50.39
61010;BME280;46897;55.340;86.082;2023-04-06T07:37:22;100140.03;;;9.63;50.38
61010;BME280;46897;55.340;86.082;2023-04-06T07:42:40;100136.78;;;9.77;50.32
61010;BME280;46897;55.340;86.082;2023-04-06T07:45:27;100145.28;;;9.85;50.02
61010;BME280;46897;55.340;86.082;2023-04-06T07:47:56;100143.28;;;9.90;50.48
61010;BME280;46897;55.340;86.082;2023-04-06T07:50:43;100120.34;;;9.91;50.46
61010;BME280;46897;55.340;86.082;2023-04-06T07:53:13;100067.56;;;9.69;50.39
61010;BME280;46897;55.340;86.082;2023-04-06T07:55:42;100095.59;;;9.93;50.20
61010;BME280;46897;55.340;86.082;2023-04-06T07:58:30;100116.66;;;10.15;49.79
61010;BME280;46897;55.340;86.082;2023-04-06T08:04:05;100103.88;;;10.25;50.17
61010;BME280;46897;55.340;86.082;2023-04-06T08:06:35;100106.72;;;10.41;50.34
61010;BME280;46897;55.340;86.082;2023-04-06T08:09:23;100093.31;;;10.46;50.33
61010;BME280;46897;55.340;86.082;2023-04-06T08:11:52;100082.31;;;10.55;50.00
61010;BME280;46897;55.340;86.082;2023-04-06T08:14:21;100059.75;;;10.46;50.04
61010;BME280;46897;55.340;86.082;2023-04-06T08:17:26;100066.13;;;10.61;50.14
61010;BME280;46897;55.340;86.082;2023-04-06T08:20:13;100069.69;;;10.79;49.96
61010;BME280;46897;55.340;86.082;2023-04-06T08:22:42;100059.19;;;10.77;50.14
61010;BME280;46897;55.340;86.082;2023-04-06T08:28:00;100063.38;;;11.00;50.10
61010;BME280;46897;55.340;86.082;2023-04-06T08:30:30;100063.06;;;11.07;49.98
61010;BME280;46897;55.340;86.082;2023-04-06T08:32:59;100063.50;;;11.16;49.85
61010;BME280;46897;55.340;86.082;2023-04-06T08:35:45;100059.31;;;11.30;49.70
61010;BME280;46897;55.340;86.082;2023-04-06T08:38:15;100052.00;;;11.52;49.86
61010;BME280;46897;55.340;86.082;2023-04-06T08:40:45;100049.34;;;12.05;49.40
61010;BME280;46897;55.340;86.082;2023-04-06T08:43:17;100045.94;;;12.68;48.71
61010;BME280;46897;55.340;86.082;2023-04-06T08:45:49;100044.88;;;13.34;48.22
61010;BME280;46897;55.340;86.082;2023-04-06T08:48:19;100048.63;;;13.90;48.16
61010;BME280;46897;55.340;86.082;2023-04-06T08:50:53;100040.31;;;14.40;47.85
